Time;durP1;ratioP1;P1;durP2;ratioP2;P2;SDS_P1;SDS_P2;PMS_P1;PMS_P2;Temp;Humidity;BMP_temperature;BMP_pressure;BME280_temperature;BME280_humidity;BME280_pressure;Samples;Min_cycle;Max_cycle;Signal;HPM_P1;HPM_P2
2023/02/10 00:01:06;;;;;;;12.82;10.25;;;21.80;32.30;;;;;;5033395;28;20049;-58
2023/02/10 00:03:34;;;;;;;14.82;10.18;;;21.90;32.00;;;;;;5022121;28;20157;-60
2023/02/10 00:06:02;;;;;;;13.70;10.32;;;22.00;31.90;;;;;;5022596;28;20042;-58
2023/02/10 00:08:31;;;;;;;11.73;10.15;;;22.10;32.10;;;;;;5016758;28;20053;-57
2023/02/10 00:10:59;;;;;;;13.82;10.52;;;22.10;31.80;;;;;;5042164;28;20033;-55
2023/02/10 00:13:26;;;;;;;10.63;9.35;;;22.20;31.70;;;;;;5042178;28;20052;-61
2023/02/10 00:15:54;;;;;;;11.50;9.10;;;22.30;31.70;;;;;;5042094;28;20048;-55
2023/02/10 00:18:22;;;;;;;10.60;9.48;;;22.40;31.60;;;;;;5042510;28;20048;-58
2023/02/10 00:20:49;;;;;;;14.10;9.82;;;22.50;31.50;;;;;;5042239;28;20060;-58
2023/02/10 00:23:16;;;;;;;12.05;9.95;;;22.50;32.00;;;;;;5041980;28;20588;-60
2023/02/10 00:25:44;;;;;;;12.88;9.65;;;22.60;31.60;;;;;;5042246;28;20045;-58
2023/02/10 00:28:11;;;;;;;14.43;8.98;;;22.60;31.40;;;;;;5042039;28;20056;-61
2023/02/10 00:30:40;;;;;;;9.30;8.38;;;22.70;31.50;;;;;;5022446;28;20045;-59
2023/02/10 00:33:08;;;;;;;11.13;8.32;;;22.80;31.40;;;;;;5022421;28;20896;-60
2023/02/10 00:35:37;;;;;;;9.52;8.63;;;22.80;31.40;;;;;;5022443;28;20123;-57
2023/02/10 00:38:05;;;;;;;10.55;8.52;;;22.90;31.40;;;;;;5022527;28;20072;-54
2023/02/10 00:40:32;;;;;;;12.40;10.73;;;23.00;31.50;;;;;;5004969;28;20104;-53
2023/02/10 00:43:01;;;;;;;13.20;8.32;;;23.00;31.30;;;;;;5015781;28;20741;-58
2023/02/10 00:45:28;;;;;;;11.05;9.38;;;23.00;31.50;;;;;;5022315;28;20078;-57
2023/02/10 00:47:55;;;;;;;11.45;9.27;;;23.00;31.20;;;;;;5004555;28;20054;-58
2023/02/10 00:50:22;;;;;;;13.75;9.48;;;23.00;31.20;;;;;;5004149;28;20041;-57
2023/02/10 00:52:50;;;;;;;8.90;6.55;;;23.00;31.20;;;;;;5019962;28;20510;-57
2023/02/10 00:55:17;;;;;;;14.35;10.63;;;22.90;31.50;;;;;;5022582;28;20049;-63
2023/02/10 00:57:44;;;;;;;17.10;10.13;;;22.90;31.20;;;;;;5022965;28;20077;-65
2023/02/10 01:00:49;;;;;;;19.30;11.45;;;22.90;30.60;;;;;;5130617;27;20378;-59
2023/02/10 01:03:17;;;;;;;10.13;8.63;;;22.80;31.20;;;;;;5091024;28;20502;-58
2023/02/10 01:05:44;;;;;;;14.70;9.93;;;22.80;31.20;;;;;;5103416;28;20038;-59
2023/02/10 01:08:12;;;;;;;16.60;10.25;;;22.80;31.20;;;;;;5104698;28;20097;-61
2023/02/10 01:10:39;;;;;;;12.20;9.50;;;22.70;31.10;;;;;;5121890;28;20035;-62
2023/02/10 01:13:08;;;;;;;12.93;9.07;;;22.60;31.10;;;;;;5102848;28;20039;-65
2023/02/10 01:15:36;;;;;;;11.82;9.45;;;22.60;31.20;;;;;;5121525;28;20039;-61
2023/02/10 01:18:04;;;;;;;12.52;9.32;;;22.50;31.20;;;;;;5098803;28;20039;-62
2023/02/10 01:20:31;;;;;;;11.90;9.02;;;22.50;31.30;;;;;;5121620;28;20043;-65
2023/02/10 01:22:59;;;;;;;11.63;10.43;;;22.40;31.30;;;;;;5120035;28;20035;-72
2023/02/10 01:25:27;;;;;;;12.02;9.00;;;22.40;31.30;;;;;;5119936;28;20116;-72
2023/02/10 01:27:55;;;;;;;12.30;9.00;;;22.30;31.30;;;;;;5101899;28;20123;-61
2023/02/10 01:30:22;;;;;;;14.90;9.40;;;22.30;31.50;;;;;;5114501;28;20802;-58
2023/02/10 01:32:53;;;;;;;12.32;8.98;;;22.20;31.50;;;;;;5102975;28;20050;-58
2023/02/10 01:35:23;;;;;;;10.43;8.82;;;22.20;31.60;;;;;;5083106;28;20595;-59
2023/02/10 01:37:50;;;;;;;11.45;9.65;;;22.10;31.60;;;;;;5121680;28;20046;-58
2023/02/10 01:40:18;;;;;;;12.68;10.57;;;22.10;31.70;;;;;;5119265;28;20732;-61
2023/02/10 01:42:46;;;;;;;12.50;10.95;;;22.10;31.70;;;;;;5121238;28;20423;-59
2023/02/10 01:45:18;;;;;;;12.23;9.13;;;22.10;31.70;;;;;;5121262;28;20092;-56
2023/02/10 01:47:47;;;;;;;13.27;9.60;;;22.00;31.70;;;;;;5096702;28;20092;-59
2023/02/10 01:50:15;;;;;;;16.38;8.73;;;22.00;31.80;;;;;;5117170;28;20068;-57
2023/02/10 01:52:46;;;;;;;13.73;9.20;;;21.90;32.00;;;;;;5120982;28;20054;-57
2023/02/10 01:55:16;;;;;;;14.60;9.68;;;21.90;32.10;;;;;;5120828;28;20079;-54
2023/02/10 01:57:45;;;;;;;15.95;9.75;;;21.80;32.10;;;;;;5118148;28;20607;-58
2023/02/10 02:00:15;;;;;;;13.70;10.02;;;21.80;32.20;;;;;;5097917;28;20051;-59
2023/02/10 02:02:45;;;;;;;11.63;9.63;;;21.80;32.30;;;;;;5100381;28;20040;-56
2023/02/10 02:05:31;;;;;;;11.48;9.68;;;21.70;32.40;;;;;;5096640;28;20040;-57
2023/02/10 02:08:03;;;;;;;12.18;9.27;;;21.70;32.40;;;;;;5097805;28;20062;-58
2023/02/10 02:10:46;;;;;;;11.57;8.88;;;21.60;32.50;;;;;;5094811;28;20047;-57
2023/02/10 02:13:21;;;;;;;12.02;9.93;;;21.60;32.50;;;;;;5082476;28;20450;-57
2023/02/10 02:15:52;;;;;;;10.32;9.07;;;21.50;32.60;;;;;;5085908;28;20749;-55
2023/02/10 02:18:28;;;;;;;10.68;8.77;;;21.50;32.60;;;;;;5085237;28;20051;-56
2023/02/10 02:21:31;;;;;;;11.35;8.68;;;21.50;32.70;;;;;;5086200;28;20595;-57
2023/02/10 02:24:28;;;;;;;10.75;8.32;;;21.50;32.70;;;;;;5086176;28;20036;-56
2023/02/10 02:27:20;;;;;;;9.18;8.18;;;21.40;32.80;;;;;;5073486;28;20051;-54
2023/02/10 02:30:12;;;;;;;11.50;7.93;;;21.30;32.80;;;;;;5079646;28;20043;-53
2023/02/10 02:32:44;;;;;;;10.07;7.82;;;21.30;32.90;;;;;;5077090;28;20125;-53
2023/02/10 02:35:16;;;;;;;9.82;8.52;;;21.30;33.00;;;;;;5083772;28;20135;-53
2023/02/10 02:37:46;;;;;;;9.52;8.55;;;21.20;33.10;;;;;;5082354;28;20071;-56
2023/02/10 02:40:17;;;;;;;12.73;8.73;;;21.20;33.10;;;;;;5081218;28;20040;-57
2023/02/10 02:42:45;;;;;;;9.43;7.07;;;21.20;33.20;;;;;;5086027;28;20571;-56
2023/02/10 02:45:16;;;;;;;11.18;7.80;;;21.10;33.20;;;;;;5081969;28;20127;-53
2023/02/10 02:48:03;;;;;;;12.30;9.07;;;21.20;33.30;;;;;;5067749;28;20055;-58
2023/02/10 02:50:35;;;;;;;8.80;7.90;;;21.10;33.20;;;;;;5080815;28;20048;-53
2023/02/10 02:53:14;;;;;;;12.32;7.35;;;21.00;33.40;;;;;;5085760;28;20119;-55
2023/02/10 02:55:54;;;;;;;11.00;8.70;;;21.00;33.40;;;;;;5084236;28;20050;-57
2023/02/10 02:58:31;;;;;;;11.18;8.55;;;21.00;33.40;;;;;;5085386;28;20036;-58
2023/02/10 03:01:04;;;;;;;11.13;8.80;;;21.00;33.50;;;;;;5080020;28;20087;-57
2023/02/10 03:03:36;;;;;;;9.65;8.15;;;21.00;33.60;;;;;;5100238;28;20042;-55
2023/02/10 03:06:04;;;;;;;11.85;8.75;;;20.90;33.50;;;;;;5105955;28;20043;-55
2023/02/10 03:08:34;;;;;;;10.32;7.90;;;20.90;33.60;;;;;;5087186;28;20047;-56
2023/02/10 03:11:01;;;;;;;11.90;7.43;;;20.90;33.70;;;;;;5087863;28;20062;-54
2023/02/10 03:13:28;;;;;;;11.00;7.85;;;20.80;33.60;;;;;;5105851;28;20090;-55
2023/02/10 03:15:55;;;;;;;9.57;7.03;;;20.80;33.50;;;;;;5105191;28;20089;-52
2023/02/10 03:18:22;;;;;;;8.90;7.72;;;20.80;33.50;;;;;;5105958;28;20396;-57
2023/02/10 03:20:50;;;;;;;11.70;7.97;;;20.80;33.50;;;;;;5105525;28;20050;-53
2023/02/10 03:23:17;;;;;;;9.00;7.90;;;20.80;33.70;;;;;;5103827;28;20685;-53
2023/02/10 03:25:45;;;;;;;8.70;7.20;;;20.80;33.70;;;;;;5105523;28;20047;-54
2023/02/10 03:28:12;;;;;;;9.45;7.63;;;20.70;33.70;;;;;;5105318;28;20123;-55
2023/02/10 03:30:41;;;;;;;8.63;6.93;;;20.70;33.90;;;;;;5101683;28;20047;-54
2023/02/10 03:33:08;;;;;;;7.88;7.15;;;20.70;33.90;;;;;;5105266;28;20071;-58
2023/02/10 03:35:37;;;;;;;11.40;7.35;;;20.60;33.90;;;;;;5105420;28;20048;-57
2023/02/10 03:38:06;;;;;;;6.72;5.50;;;20.60;34.00;;;;;;5104441;28;20036;-55
2023/02/10 03:40:33;;;;;;;6.45;5.85;;;20.60;34.10;;;;;;5105383;28;20054;-57
2023/02/10 03:43:01;;;;;;;5.85;5.32;;;20.60;34.10;;;;;;5104974;28;20042;-54
2023/02/10 03:45:28;;;;;;;6.45;5.15;;;20.60;34.00;;;;;;5104530;28;20549;-54
2023/02/10 03:47:55;;;;;;;6.95;5.63;;;20.60;34.00;;;;;;5104555;28;20031;-57
2023/02/10 03:50:23;;;;;;;4.47;4.07;;;20.50;34.00;;;;;;5101279;28;20582;-54
2023/02/10 03:52:50;;;;;;;6.45;4.85;;;20.50;34.00;;;;;;5104835;28;20043;-55
2023/02/10 03:55:19;;;;;;;7.60;5.10;;;20.50;34.10;;;;;;5105052;28;20123;-53
2023/02/10 03:57:46;;;;;;;7.68;4.60;;;20.50;34.20;;;;;;5104855;28;20831;-56
2023/02/10 04:00:14;;;;;;;5.30;4.57;;;20.40;34.70;;;;;;5100793;28;20524;-55
2023/02/10 04:02:43;;;;;;;6.20;5.10;;;20.40;34.00;;;;;;5085943;28;20465;-56
2023/02/10 04:05:11;;;;;;;5.30;4.80;;;20.40;34.20;;;;;;5104874;28;20456;-55
2023/02/10 04:07:38;;;;;;;8.60;5.55;;;20.40;34.20;;;;;;5104311;28;20046;-56
2023/02/10 04:10:06;;;;;;;6.15;5.55;;;20.40;34.20;;;;;;5104629;28;20416;-55
2023/02/10 04:12:35;;;;;;;10.57;4.93;;;20.40;34.40;;;;;;5084101;28;20523;-56
2023/02/10 04:15:02;;;;;;;6.53;4.97;;;20.40;34.50;;;;;;5100778;28;20046;-55
2023/02/10 04:17:29;;;;;;;5.13;4.28;;;20.30;34.40;;;;;;5104243;28;20055;-57
2023/02/10 04:19:56;;;;;;;7.13;5.22;;;20.30;34.40;;;;;;5104571;28;20061;-56
2023/02/10 04:22:23;;;;;;;9.05;5.60;;;20.30;34.40;;;;;;5085294;28;20142;-57
2023/02/10 04:24:50;;;;;;;7.78;6.40;;;20.30;34.40;;;;;;5104446;28;20043;-54
2023/02/10 04:27:17;;;;;;;8.27;6.85;;;20.30;34.50;;;;;;5104720;28;20036;-56
2023/02/10 04:29:45;;;;;;;12.50;6.70;;;20.20;34.50;;;;;;5083019;28;20043;-54
2023/02/10 04:32:13;;;;;;;7.50;6.03;;;20.30;34.50;;;;;;5104496;28;20148;-55
2023/02/10 04:34:40;;;;;;;9.93;6.82;;;20.30;34.50;;;;;;5103733;28;20059;-54
2023/02/10 04:37:07;;;;;;;8.57;6.57;;;20.20;34.50;;;;;;5104623;28;20031;-58
2023/02/10 04:39:34;;;;;;;10.15;7.20;;;20.20;34.50;;;;;;5102039;28;20040;-52
2023/02/10 04:42:01;;;;;;;7.40;6.70;;;20.20;34.60;;;;;;5102131;28;20511;-56
2023/02/10 04:44:28;;;;;;;8.68;6.65;;;20.20;34.60;;;;;;5104083;28;20032;-55
2023/02/10 04:46:57;;;;;;;9.40;7.60;;;20.20;34.70;;;;;;5085855;28;20063;-53
2023/02/10 04:49:25;;;;;;;6.20;5.38;;;20.20;34.70;;;;;;5097432;28;20059;-54
2023/02/10 04:51:52;;;;;;;9.00;5.70;;;20.20;34.70;;;;;;5098842;28;20061;-55
2023/02/10 04:54:19;;;;;;;8.85;6.22;;;20.10;34.60;;;;;;5104129;28;20027;-56
2023/02/10 04:56:47;;;;;;;8.05;6.22;;;20.20;34.70;;;;;;5104116;28;20669;-56
2023/02/10 04:59:14;;;;;;;8.98;6.53;;;20.20;34.80;;;;;;5103632;28;20047;-57
2023/02/10 05:01:41;;;;;;;10.73;6.97;;;20.10;34.70;;;;;;5103153;28;20079;-57
2023/02/10 05:04:10;;;;;;;5.82;5.22;;;20.10;34.80;;;;;;5103060;28;20420;-55
2023/02/10 05:06:37;;;;;;;6.35;5.05;;;20.10;34.80;;;;;;5104180;28;20114;-56
2023/02/10 05:09:05;;;;;;;8.35;6.82;;;20.10;34.80;;;;;;5103268;28;20574;-53
2023/02/10 05:11:32;;;;;;;7.00;5.32;;;20.10;34.80;;;;;;5103849;28;20791;-54
2023/02/10 05:13:59;;;;;;;11.48;7.28;;;20.10;34.80;;;;;;5104372;28;20127;-54
2023/02/10 05:16:26;;;;;;;5.18;4.68;;;20.10;34.90;;;;;;5103948;28;20047;-54
2023/02/10 05:18:53;;;;;;;5.22;4.68;;;20.10;35.00;;;;;;5099016;28;20039;-56
2023/02/10 05:21:22;;;;;;;5.47;4.53;;;20.10;35.10;;;;;;5103167;28;20108;-56
2023/02/10 05:23:49;;;;;;;9.25;4.78;;;20.10;35.00;;;;;;5103146;28;20050;-57
2023/02/10 05:26:16;;;;;;;5.30;4.80;;;20.10;35.00;;;;;;5104145;28;20060;-53
2023/02/10 05:28:43;;;;;;;5.93;4.60;;;20.00;35.00;;;;;;5102971;28;20048;-56
2023/02/10 05:31:10;;;;;;;5.72;4.65;;;20.10;35.60;;;;;;5102428;28;20504;-54
2023/02/10 05:33:37;;;;;;;6.82;4.13;;;20.00;35.00;;;;;;5103218;28;20044;-54
2023/02/10 05:36:05;;;;;;;4.22;3.67;;;20.00;35.00;;;;;;5103587;28;20047;-49
2023/02/10 05:38:33;;;;;;;4.50;3.13;;;20.00;35.50;;;;;;5104696;28;20059;-50
2023/02/10 05:41:00;;;;;;;4.93;3.35;;;20.00;35.70;;;;;;5104926;28;20051;-49
2023/02/10 05:43:27;;;;;;;4.55;4.15;;;20.00;35.80;;;;;;5105012;28;20039;-49
2023/02/10 05:45:55;;;;;;;4.45;3.20;;;20.00;35.90;;;;;;5105567;28;20048;-50
2023/02/10 05:48:22;;;;;;;4.00;2.95;;;20.00;35.90;;;;;;5108399;28;20047;-48
2023/02/10 05:50:51;;;;;;;3.35;3.08;;;20.00;35.90;;;;;;5105896;28;20044;-50
2023/02/10 05:53:18;;;;;;;3.25;2.90;;;20.00;36.20;;;;;;5109259;28;20075;-53
2023/02/10 05:55:47;;;;;;;5.90;3.72;;;20.00;35.80;;;;;;5108834;28;20667;-50
2023/02/10 05:58:15;;;;;;;4.90;3.15;;;20.00;35.80;;;;;;5109191;28;20122;-52
2023/02/10 06:00:42;;;;;;;7.78;2.65;;;20.00;35.70;;;;;;5106921;28;20112;-53
2023/02/10 06:03:09;;;;;;;4.20;3.45;;;20.00;35.70;;;;;;5109046;28;20508;-54
2023/02/10 06:05:36;;;;;;;2.72;2.45;;;20.00;35.70;;;;;;5109328;28;20119;-56
2023/02/10 06:08:04;;;;;;;5.63;2.88;;;20.00;35.80;;;;;;5109011;28;20066;-50
2023/02/10 06:10:32;;;;;;;3.92;3.47;;;20.00;35.80;;;;;;5108850;28;20046;-53
2023/02/10 06:13:00;;;;;;;5.43;3.17;;;20.00;35.80;;;;;;5108961;28;20036;-48
2023/02/10 06:15:27;;;;;;;2.25;2.10;;;20.00;35.80;;;;;;5105032;28;20059;-52
2023/02/10 06:17:54;;;;;;;2.60;2.40;;;20.00;35.80;;;;;;5108453;28;20043;-50
2023/02/10 06:20:21;;;;;;;2.75;2.15;;;20.00;35.80;;;;;;5108567;28;20674;-50
2023/02/10 06:22:48;;;;;;;2.28;1.75;;;19.90;35.80;;;;;;5108461;28;20122;-51
2023/02/10 06:25:15;;;;;;;4.25;2.72;;;19.90;35.90;;;;;;5108360;28;20039;-49
2023/02/10 06:27:42;;;;;;;2.10;2.00;;;19.90;36.00;;;;;;5099634;28;20102;-48
2023/02/10 06:30:12;;;;;;;2.65;2.40;;;19.90;36.10;;;;;;5102211;28;20039;-45
2023/02/10 06:32:39;;;;;;;3.25;2.13;;;19.90;36.10;;;;;;5108300;28;20575;-51
2023/02/10 06:35:08;;;;;;;3.83;2.80;;;19.90;36.20;;;;;;5108290;28;20096;-49
2023/02/10 06:37:35;;;;;;;2.83;1.50;;;19.80;36.20;;;;;;5108256;28;20462;-50
2023/02/10 06:40:03;;;;;;;5.47;2.60;;;19.90;36.30;;;;;;5108045;28;20049;-53
2023/02/10 06:42:31;;;;;;;5.15;2.08;;;19.80;36.40;;;;;;5097302;28;20136;-51
2023/02/10 06:44:58;;;;;;;3.83;2.15;;;19.80;36.40;;;;;;5087639;28;20142;-51
2023/02/10 06:47:26;;;;;;;4.35;2.38;;;19.80;36.40;;;;;;5100949;28;20039;-46
2023/02/10 06:49:54;;;;;;;5.25;2.20;;;19.80;36.50;;;;;;5107964;28;20057;-49
2023/02/10 06:52:24;;;;;;;5.13;2.60;;;19.70;36.50;;;;;;5107766;28;20809;-52
2023/02/10 06:54:51;;;;;;;2.58;2.10;;;19.70;36.60;;;;;;5107830;28;20134;-49
2023/02/10 06:57:18;;;;;;;4.38;2.47;;;19.70;36.70;;;;;;5107591;28;20032;-50
2023/02/10 06:59:45;;;;;;;3.00;2.38;;;19.70;36.60;;;;;;5085294;28;20080;-49
2023/02/10 07:02:13;;;;;;;3.20;2.60;;;19.70;36.70;;;;;;5087074;28;20066;-50
2023/02/10 07:04:42;;;;;;;2.65;2.22;;;19.70;36.80;;;;;;5087360;28;20056;-55
2023/02/10 07:07:10;;;;;;;2.63;2.17;;;19.70;36.80;;;;;;5087082;28;20036;-52
2023/02/10 07:09:37;;;;;;;2.65;2.45;;;19.70;36.90;;;;;;5086973;28;20104;-53
2023/02/10 07:12:05;;;;;;;3.17;1.92;;;19.60;36.80;;;;;;5087191;28;20040;-53
2023/02/10 07:14:32;;;;;;;4.15;2.90;;;19.60;36.90;;;;;;5086632;28;20094;-54
2023/02/10 07:17:00;;;;;;;4.10;2.33;;;19.60;36.90;;;;;;5086675;28;20059;-51
2023/02/10 07:19:27;;;;;;;3.25;2.90;;;19.60;36.90;;;;;;5087047;28;20321;-53
2023/02/10 07:21:56;;;;;;;3.20;2.17;;;19.60;36.90;;;;;;5086841;28;20059;-55
2023/02/10 07:24:23;;;;;;;3.17;2.88;;;19.60;36.90;;;;;;5087142;28;20051;-52
2023/02/10 07:26:51;;;;;;;2.10;1.92;;;19.50;37.00;;;;;;5087217;28;20046;-55
2023/02/10 07:29:18;;;;;;;3.50;1.85;;;19.50;37.00;;;;;;5079417;28;20412;-54
2023/02/10 07:31:46;;;;;;;3.38;3.08;;;19.50;37.00;;;;;;5082324;28;20051;-54
2023/02/10 07:34:14;;;;;;;4.78;1.75;;;19.50;37.10;;;;;;5086840;28;20557;-49
2023/02/10 07:36:40;;;;;;;6.32;2.65;;;19.50;37.10;;;;;;5086927;28;20059;-48
2023/02/10 07:39:10;;;;;;;4.35;3.22;;;19.50;37.20;;;;;;5086948;28;20148;-54
2023/02/10 07:41:38;;;;;;;2.78;2.33;;;19.50;37.30;;;;;;5083534;28;20040;-49
2023/02/10 07:44:05;;;;;;;4.10;2.70;;;19.40;37.20;;;;;;5066344;28;20052;-50
2023/02/10 07:46:33;;;;;;;3.13;2.10;;;19.40;37.40;;;;;;5067652;28;20068;-50
2023/02/10 07:49:01;;;;;;;2.33;2.13;;;19.40;37.50;;;;;;5066558;28;20052;-50
2023/02/10 07:51:28;;;;;;;7.68;2.08;;;19.40;37.60;;;;;;5065048;28;20051;-51
2023/02/10 07:53:55;;;;;;;4.43;2.63;;;19.40;37.70;;;;;;5066620;28;20037;-51
2023/02/10 07:56:23;;;;;;;3.53;1.85;;;19.40;37.70;;;;;;5066339;28;20040;-53
2023/02/10 07:58:50;;;;;;;2.70;2.17;;;19.40;37.80;;;;;;5067346;28;20150;-49
2023/02/10 08:01:19;;;;;;;4.90;1.52;;;19.40;37.80;;;;;;5098787;28;20043;-49
2023/02/10 08:03:47;;;;;;;2.17;1.67;;;19.40;37.80;;;;;;5106852;28;20574;-48
2023/02/10 08:06:20;;;;;;;2.20;1.42;;;19.40;37.90;;;;;;5106515;28;20039;-50
2023/02/10 08:08:47;;;;;;;1.92;1.13;;;19.40;37.90;;;;;;5106358;28;20127;-47
2023/02/10 08:11:15;;;;;;;1.55;1.45;;;19.40;38.00;;;;;;5088212;28;20039;-47
2023/02/10 08:13:45;;;;;;;2.05;1.85;;;19.40;38.00;;;;;;5106113;28;20583;-52
2023/02/10 08:16:12;;;;;;;3.47;1.70;;;19.40;38.00;;;;;;5105149;28;20082;-50
2023/02/10 08:18:41;;;;;;;3.33;1.40;;;19.40;38.10;;;;;;5104025;28;20043;-51
2023/02/10 08:21:08;;;;;;;2.30;1.92;;;19.30;38.10;;;;;;5106347;28;20100;-50
2023/02/10 08:23:37;;;;;;;2.60;1.90;;;19.40;38.20;;;;;;5106333;28;20451;-53
2023/02/10 08:26:06;;;;;;;2.83;2.50;;;19.30;38.20;;;;;;5106447;28;20036;-48
2023/02/10 08:28:36;;;;;;;3.72;1.42;;;19.40;38.30;;;;;;5087302;28;20048;-52
2023/02/10 08:31:09;;;;;;;4.30;2.20;;;19.40;38.40;;;;;;5101946;28;20036;-64
2023/02/10 08:33:37;;;;;;;4.65;3.30;;;19.40;37.80;;;;;;5071380;28;20036;-62
2023/02/10 08:36:07;;;;;;;14.77;2.72;;;19.30;37.80;;;;;;5085931;28;20080;-63
2023/02/10 08:38:34;;;;;;;2.67;1.65;;;19.40;37.80;;;;;;5086111;28;20040;-56
2023/02/10 08:41:02;;;;;;;3.95;1.45;;;19.40;37.70;;;;;;5103380;28;20048;-64
2023/02/10 08:43:30;;;;;;;2.35;2.05;;;19.40;37.70;;;;;;5097313;28;20028;-63
2023/02/10 08:45:57;;;;;;;6.20;2.38;;;19.40;37.70;;;;;;5085516;28;20085;-57
2023/02/10 08:48:26;;;;;;;4.07;1.85;;;19.40;37.50;;;;;;5085762;28;20124;-57
2023/02/10 08:50:54;;;;;;;2.65;2.03;;;19.50;37.50;;;;;;5085713;28;20501;-61
2023/02/10 08:53:21;;;;;;;3.40;2.97;;;19.50;37.40;;;;;;5087149;28;20873;-55
2023/02/10 08:55:56;;;;;;;5.47;1.40;;;19.60;37.40;;;;;;5105657;28;20043;-55
2023/02/10 08:58:24;;;;;;;4.35;2.33;;;19.60;37.30;;;;;;5105901;28;20050;-58
2023/02/10 09:00:51;;;;;;;6.88;2.35;;;19.60;37.30;;;;;;5105520;28;20055;-54
2023/02/10 09:03:19;;;;;;;3.97;2.00;;;19.60;37.30;;;;;;5106105;28;20055;-53
2023/02/10 09:05:48;;;;;;;5.45;1.98;;;19.60;37.10;;;;;;5105788;28;20051;-57
2023/02/10 09:08:16;;;;;;;4.95;2.42;;;19.70;37.00;;;;;;5105834;28;20043;-56
2023/02/10 09:10:44;;;;;;;4.57;1.98;;;19.70;36.90;;;;;;5105733;28;20044;-56
2023/02/10 09:13:11;;;;;;;3.83;1.98;;;19.70;36.80;;;;;;5106042;28;20393;-58
2023/02/10 09:15:40;;;;;;;6.20;3.22;;;19.70;36.80;;;;;;5105842;28;20039;-65
2023/02/10 09:18:07;;;;;;;3.83;1.70;;;19.80;36.90;;;;;;5087652;28;20512;-58
2023/02/10 09:20:36;;;;;;;4.55;1.70;;;19.80;37.00;;;;;;5106487;28;20044;-56
2023/02/10 09:23:05;;;;;;;4.88;1.77;;;19.90;36.90;;;;;;5110113;28;20052;-60
2023/02/10 09:25:33;;;;;;;7.82;2.10;;;20.00;36.80;;;;;;5091327;28;20120;-59
2023/02/10 09:28:01;;;;;;;1.40;1.30;;;20.10;36.80;;;;;;5110502;28;20067;-57
2023/02/10 09:30:29;;;;;;;3.75;1.35;;;20.20;36.60;;;;;;5108369;28;20504;-55
2023/02/10 09:32:56;;;;;;;5.47;1.63;;;20.40;36.40;;;;;;5109941;28;20036;-56
2023/02/10 09:35:23;;;;;;;4.38;1.88;;;20.50;36.20;;;;;;5110009;28;20508;-57
2023/02/10 09:37:50;;;;;;;2.83;1.73;;;20.70;36.10;;;;;;5110049;28;20035;-55
2023/02/10 09:40:24;;;;;;;2.47;1.70;;;20.80;35.90;;;;;;5090996;28;20043;-59
2023/02/10 09:43:02;;;;;;;2.05;1.63;;;21.00;35.70;;;;;;5105660;28;20063;-58
2023/02/10 09:45:36;;;;;;;2.00;1.40;;;21.10;35.60;;;;;;5108116;28;20496;-57
2023/02/10 09:48:18;;;;;;;2.88;1.20;;;21.20;35.50;;;;;;5100444;28;20040;-56
2023/02/10 09:51:00;;;;;;;2.92;1.75;;;21.40;35.50;;;;;;5108915;28;20568;-54
2023/02/10 09:53:31;;;;;;;3.88;1.55;;;21.50;35.50;;;;;;5109030;28;20048;-57
2023/02/10 09:56:04;;;;;;;2.35;2.15;;;21.50;35.40;;;;;;5108737;28;20050;-56
2023/02/10 09:58:41;;;;;;;1.60;1.27;;;21.70;35.40;;;;;;5109476;28;20043;-55
2023/02/10 10:01:17;;;;;;;6.78;1.52;;;21.70;35.30;;;;;;5108988;28;20047;-58
2023/02/10 10:03:47;;;;;;;;;;;21.80;35.20;;;;;;5091353;28;20035;-56
2023/02/10 10:06:21;;;;;;;5.18;1.55;;;21.80;35.40;;;;;;5109368;28;19923;-56
2023/02/10 10:08:58;;;;;;;2.22;0.95;;;22.00;35.20;;;;;;5105030;28;20044;-57
2023/02/10 10:11:36;;;;;;;3.30;1.70;;;22.10;35.10;;;;;;5108946;28;20040;-56
2023/02/10 10:14:05;;;;;;;5.55;1.58;;;22.20;35.00;;;;;;5109070;28;20048;-55
2023/02/10 10:17:06;;;;;;;6.55;2.30;;;22.30;35.00;;;;;;5109015;28;20500;-60
2023/02/10 10:19:44;;;;;;;1.83;1.60;;;22.40;34.90;;;;;;5109123;28;20124;-61
2023/02/10 10:22:26;;;;;;;3.63;1.90;;;22.40;34.70;;;;;;5108830;28;20058;-58
2023/02/10 10:25:16;;;;;;;1.77;1.63;;;22.40;34.50;;;;;;5108240;28;20054;-59
2023/02/10 10:27:56;;;;;;;1.98;1.67;;;22.40;34.30;;;;;;5108359;28;20039;-61
2023/02/10 10:30:34;;;;;;;1.70;1.60;;;22.40;34.20;;;;;;5102411;28;20100;-62
2023/02/10 10:33:07;;;;;;;4.75;2.53;;;22.30;34.10;;;;;;5084315;28;20579;-67
2023/02/10 10:35:40;;;;;;;3.50;1.48;;;22.30;34.10;;;;;;5086253;28;20087;-70
2023/02/10 10:38:13;;;;;;;2.50;2.40;;;22.30;33.90;;;;;;5085536;28;20127;-65
2023/02/10 10:40:41;;;;;;;6.93;1.10;;;22.30;33.90;;;;;;5084183;28;20122;-62
2023/02/10 10:43:15;;;;;;;5.03;2.30;;;22.20;34.30;;;;;;5083817;28;20052;-62
2023/02/10 10:45:48;;;;;;;2.78;2.13;;;22.20;33.80;;;;;;5084475;28;20147;-62
2023/02/10 10:48:24;;;;;;;7.72;2.90;;;22.30;33.80;;;;;;5093781;28;20142;-62
2023/02/10 10:50:51;;;;;;;4.07;1.70;;;22.20;33.70;;;;;;5104168;28;20567;-63
2023/02/10 10:53:23;;;;;;;4.57;2.47;;;22.20;33.80;;;;;;5104638;28;21081;-63
2023/02/10 10:55:54;;;;;;;4.90;2.55;;;22.20;33.70;;;;;;5106005;28;20050;-64
2023/02/10 10:58:27;;;;;;;2.28;2.08;;;22.20;33.70;;;;;;5105853;28;20337;-63
2023/02/10 11:00:56;;;;;;;3.88;2.45;;;22.20;33.60;;;;;;5104846;28;20132;-61
2023/02/10 11:03:23;;;;;;;15.45;3.83;;;22.20;33.60;;;;;;5105385;28;20562;-62
2023/02/10 11:06:03;;;;;;;3.50;1.92;;;22.20;33.60;;;;;;5105714;28;20051;-63
2023/02/10 11:08:35;;;;;;;6.93;2.97;;;22.20;33.50;;;;;;5104121;28;20511;-61
2023/02/10 11:11:09;;;;;;;4.00;2.05;;;22.20;33.70;;;;;;5104561;28;20055;-65
2023/02/10 11:13:40;;;;;;;3.08;2.20;;;22.20;33.60;;;;;;5099782;28;20534;-63
2023/02/10 11:16:11;;;;;;;3.72;2.08;;;22.20;33.60;;;;;;5103598;28;20074;-63
2023/02/10 11:18:40;;;;;;;3.83;1.38;;;22.20;33.60;;;;;;5092823;28;20036;-63
2023/02/10 11:21:09;;;;;;;4.32;2.22;;;22.20;34.20;;;;;;5097573;28;20036;-70
2023/02/10 11:23:48;;;;;;;5.55;3.33;;;22.20;34.10;;;;;;5097879;28;20113;-71
2023/02/10 11:26:20;;;;;;;4.72;2.53;;;22.20;33.70;;;;;;5096662;28;20415;-70
2023/02/10 11:28:50;;;;;;;2.97;2.55;;;22.20;33.70;;;;;;5094028;28;20039;-73
2023/02/10 11:31:26;;;;;;;2.20;1.48;;;22.20;33.70;;;;;;5090505;28;20048;-74
2023/02/10 11:33:58;;;;;;;5.00;3.83;;;22.30;33.60;;;;;;5087208;28;20052;-76
2023/02/10 11:36:36;;;;;;;2.50;1.35;;;22.20;33.50;;;;;;5086206;28;20048;-75
2023/02/10 11:39:05;;;;;;;3.85;1.83;;;22.30;34.00;;;;;;5084894;28;20044;-70
2023/02/10 11:41:34;;;;;;;3.42;2.40;;;22.30;33.90;;;;;;5084914;28;20109;-73
2023/02/10 11:44:16;;;;;;;6.25;2.60;;;22.30;33.90;;;;;;5085641;28;20052;-63
2023/02/10 11:46:43;;;;;;;4.53;2.47;;;22.30;33.80;;;;;;5099364;28;20142;-61
2023/02/10 11:49:18;;;;;;;7.13;2.85;;;22.30;33.80;;;;;;5104713;28;20043;-65
2023/02/10 11:51:54;;;;;;;3.00;2.70;;;22.30;33.70;;;;;;5103892;28;20035;-60
2023/02/10 11:54:21;;;;;;;2.72;2.03;;;22.30;33.80;;;;;;5104249;28;20128;-59
2023/02/10 11:59:48;;;;;;;4.65;2.13;;;22.30;34.00;;;;;;5103500;28;20098;-61
2023/02/10 12:02:23;;;;;;;5.18;2.67;;;22.30;34.00;;;;;;5103818;28;20065;-62
2023/02/10 12:05:08;;;;;;;5.07;2.35;;;22.30;33.90;;;;;;5103852;28;20518;-62
2023/02/10 12:07:56;;;;;;;2.35;1.73;;;22.30;33.90;;;;;;5104006;28;20051;-61
2023/02/10 12:10:29;;;;;;;5.97;1.80;;;22.30;34.30;;;;;;5103561;28;20044;-61
2023/02/10 12:13:03;;;;;;;6.85;2.78;;;22.30;34.00;;;;;;5104217;28;20039;-62
2023/02/10 12:15:43;;;;;;;7.57;3.38;;;22.30;33.80;;;;;;5103870;28;20122;-61
2023/02/10 12:18:24;;;;;;;3.72;2.88;;;22.30;33.90;;;;;;5101243;28;20127;-64
2023/02/10 12:21:07;;;;;;;6.97;3.65;;;22.20;33.70;;;;;;5103163;28;20043;-65
2023/02/10 12:23:57;;;;;;;5.07;2.55;;;22.20;33.70;;;;;;5104711;28;20150;-62
2023/02/10 12:26:30;;;;;;;4.88;3.30;;;22.30;34.10;;;;;;5104073;28;20135;-67
2023/02/10 12:29:15;;;;;;;4.63;3.65;;;22.20;33.90;;;;;;5104248;28;20036;-70
2023/02/10 12:31:54;;;;;;;3.78;1.88;;;22.30;33.90;;;;;;5103118;28;20036;-67
2023/02/10 12:34:45;;;;;;;4.70;3.63;;;22.20;34.20;;;;;;5103745;28;20407;-70
2023/02/10 12:37:23;;;;;;;5.53;3.22;;;22.30;34.00;;;;;;5104306;28;20075;-66
2023/02/10 12:39:59;;;;;;;4.93;2.08;;;22.20;34.00;;;;;;5103718;28;20512;-66
2023/02/10 12:42:44;;;;;;;8.73;2.88;;;22.20;34.10;;;;;;5078489;28;20097;-65
2023/02/10 12:45:21;;;;;;;4.47;3.38;;;22.20;34.30;;;;;;5085664;28;20862;-66
2023/02/10 12:48:02;;;;;;;4.43;3.60;;;22.20;34.10;;;;;;5103341;28;20139;-66
2023/02/10 12:50:48;;;;;;;3.30;3.00;;;22.20;34.00;;;;;;5102952;28;20089;-68
2023/02/10 12:53:20;;;;;;;3.65;1.98;;;22.30;34.10;;;;;;5103400;28;20067;-66
2023/02/10 12:55:55;;;;;;;3.97;3.58;;;22.30;34.40;;;;;;5103208;28;20040;-66
2023/02/10 12:58:26;;;;;;;3.33;2.10;;;22.30;34.20;;;;;;5103191;28;20109;-66
2023/02/10 13:01:04;;;;;;;5.95;4.07;;;22.30;34.30;;;;;;5102598;28;20131;-67
2023/02/10 13:03:35;;;;;;;2.88;2.67;;;22.30;34.20;;;;;;5084406;28;20181;-65